Time;durP1;ratioP1;P1;durP2;ratioP2;P2;SDS_P1;SDS_P2;PMS_P1;PMS_P2;Temp;Humidity;BMP_temperature;BMP_pressure;BME280_temperature;BME280_humidity;BME280_pressure;Samples;Min_cycle;Max_cycle;Signal;HPM_P1;HPM_P2
2023/09/13 00:02:14;;;;;;;12.65;4.60;;;;;;;20.33;44.78;95499.06;5037915;28;20026;-83
2023/09/13 00:04:41;;;;;;;6.32;3.53;;;;;;;20.04;45.44;95462.97;5036768;28;20076;-83
2023/09/13 00:07:06;;;;;;;11.10;3.53;;;;;;;19.91;45.49;95430.94;5037829;28;20029;-84
2023/09/13 00:09:32;;;;;;;9.68;3.50;;;;;;;19.41;45.60;95353.63;5035452;28;20124;-83
2023/09/13 00:11:58;;;;;;;6.72;3.85;;;;;;;20.31;45.68;95503.97;5037256;28;20064;-83
2023/09/13 00:14:23;;;;;;;8.40;3.80;;;;;;;20.04;46.51;95506.06;5037313;28;20041;-83
2023/09/13 00:16:50;;;;;;;14.48;4.30;;;;;;;20.04;46.36;95497.97;5036150;28;20037;-84
2023/09/13 00:19:16;;;;;;;8.07;3.30;;;;;;;20.17;46.42;95506.91;5036415;28;20068;-83
2023/09/13 00:21:42;;;;;;;12.88;4.72;;;;;;;19.49;46.69;95452.34;5036149;28;20040;-84
2023/09/13 00:24:09;;;;;;;8.13;3.97;;;;;;;20.03;46.53;95519.84;5036140;28;20449;-83
2023/09/13 00:26:35;;;;;;;14.82;5.25;;;;;;;19.39;46.50;95411.50;5037162;28;20499;-83
2023/09/13 00:29:00;;;;;;;10.93;4.35;;;;;;;19.24;46.08;95381.38;5038260;28;20029;-83
2023/09/13 00:31:27;;;;;;;8.80;3.80;;;;;;;19.62;46.16;95443.25;5037293;28;20053;-83
2023/09/13 00:33:53;;;;;;;13.05;3.50;;;;;;;20.03;45.89;95511.75;5038014;28;20047;-84
2023/09/13 00:36:18;;;;;;;14.55;7.13;;;;;;;18.95;46.10;95338.31;5036455;28;20068;-83
2023/09/13 00:38:44;;;;;;;10.02;4.55;;;;;;;19.99;46.56;95511.59;5036205;28;20547;-83
2023/09/13 00:41:09;;;;;;;11.15;5.97;;;;;;;19.37;46.79;95427.22;5038238;28;20140;-83
2023/09/13 00:43:35;;;;;;;11.10;4.15;;;;;;;19.09;47.52;95424.13;5038049;28;20033;-84
2023/09/13 00:46:02;;;;;;;8.65;3.80;;;;;;;19.59;47.23;95483.47;5037327;28;20037;-83
2023/09/13 00:48:29;;;;;;;6.72;4.15;;;;;;;19.36;47.59;95464.06;5043298;28;20053;-83
2023/09/13 00:50:56;;;;;;;7.47;3.60;;;;;;;19.03;47.60;95404.69;5038926;28;20025;-83
2023/09/13 00:53:22;;;;;;;9.75;3.50;;;;;;;19.67;47.47;95509.56;5039922;28;20029;-84
2023/09/13 00:55:53;;;;;;;8.63;4.07;;;;;;;19.15;48.21;95426.31;5041287;28;20043;-83
2023/09/13 00:58:18;;;;;;;7.32;3.63;;;;;;;19.41;48.00;95471.94;5045396;28;20078;-83
2023/09/13 01:00:45;;;;;;;8.10;4.00;;;;;;;19.45;47.98;95509.75;5067610;28;20083;-83
2023/09/13 01:03:11;;;;;;;8.95;3.60;;;;;;;19.17;47.95;95464.44;5058847;28;20059;-83
2023/09/13 01:05:37;;;;;;;10.45;3.88;;;;;;;19.36;48.04;95507.09;5057393;28;20033;-83
2023/09/13 01:08:03;;;;;;;7.07;4.10;;;;;;;18.70;48.15;95395.59;5036684;28;20116;-84
2023/09/13 01:10:29;;;;;;;9.43;3.90;;;;;;;19.54;47.98;95519.41;5034011;28;20406;-84
2023/09/13 01:12:54;;;;;;;7.25;3.95;;;;;;;19.54;48.04;95518.59;5034607;28;20048;-84
2023/09/13 01:15:23;;;;;;;12.07;4.00;;;;;;;18.74;48.33;95405.41;5052797;28;20112;-84
2023/09/13 01:18:10;;;;;;;7.95;4.45;;;;;;;19.20;48.38;95484.50;5056824;28;20032;-84
2023/09/13 01:20:48;;;;;;;12.25;4.18;;;;;;;19.43;48.24;95514.66;5035503;28;20140;-84
2023/09/13 01:23:42;;;;;;;9.73;3.65;;;;;;;19.40;48.40;95517.97;5035224;28;20017;-84
2023/09/13 01:26:38;;;;;;;11.73;4.22;;;;;;;19.42;48.41;95519.25;5035431;28;20135;-84
2023/09/13 01:29:05;;;;;;;12.50;4.68;;;;;;;19.14;48.42;95483.13;5035248;28;20032;-84
2023/09/13 01:31:33;;;;;;;7.93;4.05;;;;;;;19.08;48.42;95471.72;5052505;28;20067;-85
2023/09/13 01:33:58;;;;;;;12.45;4.13;;;;;;;19.25;48.64;95505.84;5034216;28;20033;-84
2023/09/13 01:36:24;;;;;;;12.90;3.90;;;;;;;18.52;49.29;95435.91;5033849;28;20044;-84
2023/09/13 01:38:50;;;;;;;10.70;4.00;;;;;;;19.13;49.61;95527.22;5034093;28;20056;-84
2023/09/13 01:41:33;;;;;;;13.38;4.30;;;;;;;18.90;49.27;95478.25;5034400;28;20507;-84
2023/09/13 01:43:59;;;;;;;11.90;5.07;;;;;;;19.04;49.17;95508.41;5052368;28;20052;-84
2023/09/13 01:46:38;;;;;;;8.05;3.85;;;;;;;19.18;49.20;95527.84;5051733;28;20037;-84
2023/09/13 01:49:05;;;;;;;17.65;4.82;;;;;;;19.09;48.65;95513.63;5052004;28;20475;-84
2023/09/13 01:51:31;;;;;;;11.70;4.57;;;;;;;18.53;49.26;95444.75;5033967;28;20037;-84
2023/09/13 01:53:56;;;;;;;6.70;4.30;;;;;;;18.54;49.56;95440.94;5033537;28;20033;-84
2023/09/13 01:56:22;;;;;;;8.57;4.22;;;;;;;19.16;49.49;95523.88;5033416;28;20128;-84
2023/09/13 01:58:48;;;;;;;18.55;4.65;;;;;;;19.21;49.35;95542.56;5033373;28;20110;-84
2023/09/13 02:01:15;;;;;;;10.23;4.57;;;;;;;18.16;49.80;95380.97;5035588;28;20106;-84
2023/09/13 02:03:40;;;;;;;11.45;5.10;;;;;;;18.75;50.47;95517.16;5037822;28;20048;-84
2023/09/13 02:06:06;;;;;;;11.23;4.68;;;;;;;18.16;50.43;95423.91;5037458;28;20369;-84
2023/09/13 02:08:32;;;;;;;15.13;4.65;;;;;;;18.60;50.84;95522.19;5055793;28;20047;-84
2023/09/13 02:10:57;;;;;;;13.73;6.10;;;;;;;18.31;51.14;95479.81;5055108;28;20245;-84
2023/09/13 02:13:24;;;;;;;14.85;5.63;;;;;;;18.42;51.55;95510.63;5037091;28;20033;-84
2023/09/13 02:15:49;;;;;;;14.52;6.45;;;;;;;18.58;51.37;95527.88;5037476;28;20037;-84
2023/09/13 02:18:15;;;;;;;15.32;5.47;;;;;;;18.03;50.94;95441.72;5039006;28;20037;-86
2023/09/13 02:20:40;;;;;;;14.15;5.90;;;;;;;18.17;50.79;95453.09;5038163;28;20393;-86
2023/09/13 02:23:06;;;;;;;16.63;5.63;;;;;;;18.37;50.88;95478.56;5039265;28;20036;-87
2023/09/13 02:25:38;;;;;;;20.33;6.30;;;;;;;18.47;50.90;95481.69;5038710;28;20108;-86
2023/09/13 02:28:04;;;;;;;15.80;5.82;;;;;;;18.63;50.67;95514.28;5057054;28;20040;-86
2023/09/13 02:30:31;;;;;;;21.52;6.35;;;;;;;18.19;50.65;95434.00;5038824;28;20041;-86
2023/09/13 02:32:56;;;;;;;12.32;5.70;;;;;;;18.71;50.77;95518.06;5055712;28;20036;-86
2023/09/13 02:35:21;;;;;;;11.38;5.38;;;;;;;17.92;51.47;95421.66;5038259;28;20029;-86
2023/09/13 02:37:48;;;;;;;14.50;6.40;;;;;;;18.10;51.63;95467.00;5038374;28;20041;-86
2023/09/13 02:40:13;;;;;;;12.32;5.40;;;;;;;18.42;51.43;95506.03;5038689;28;20120;-86
2023/09/13 02:42:39;;;;;;;13.48;6.45;;;;;;;18.37;51.36;95508.88;5056425;28;20064;-86
2023/09/13 02:45:05;;;;;;;17.65;5.85;;;;;;;18.47;51.18;95508.56;5038645;28;20120;-86
2023/09/13 02:47:31;;;;;;;19.75;5.90;;;;;;;17.91;51.69;95446.91;5056099;28;20896;-86
2023/09/13 02:49:56;;;;;;;18.27;6.75;;;;;;;18.15;51.75;95492.91;5055906;28;20098;-86
2023/09/13 02:52:30;;;;;;;15.18;6.40;;;;;;;18.31;51.80;95526.22;5055686;28;20171;-86
2023/09/13 02:54:57;;;;;;;15.20;6.28;;;;;;;17.96;51.84;95466.34;5021679;28;20454;-86
2023/09/13 02:57:23;;;;;;;14.07;6.05;;;;;;;17.69;51.54;95413.75;5055927;28;20101;-86
2023/09/13 02:59:48;;;;;;;15.38;6.72;;;;;;;18.40;51.73;95527.03;5057946;28;20080;-85
2023/09/13 03:02:14;;;;;;;15.65;6.13;;;;;;;18.13;51.59;95487.84;5043521;28;20087;-85
2023/09/13 03:04:40;;;;;;;18.33;7.22;;;;;;;17.94;52.13;95500.72;5043342;28;20784;-85
2023/09/13 03:07:06;;;;;;;14.02;6.30;;;;;;;17.90;52.45;95494.41;5042467;28;20073;-86
2023/09/13 03:09:31;;;;;;;16.77;6.47;;;;;;;17.77;52.33;95486.50;5042296;28;20125;-85
2023/09/13 03:11:57;;;;;;;20.02;6.45;;;;;;;17.99;53.04;95548.13;5060117;28;20079;-85
2023/09/13 03:14:22;;;;;;;19.17;6.85;;;;;;;17.90;53.18;95531.19;5061545;28;20032;-86
2023/09/13 03:16:48;;;;;;;15.45;5.97;;;;;;;17.95;53.12;95539.09;5061436;28;20364;-85
2023/09/13 03:19:13;;;;;;;17.23;6.57;;;;;;;17.35;52.63;95454.59;5042738;28;20100;-85
2023/09/13 03:21:38;;;;;;;19.67;6.85;;;;;;;17.22;52.73;95425.22;5042161;28;20491;-85
2023/09/13 03:24:05;;;;;;;16.80;6.95;;;;;;;18.04;52.22;95545.28;5042776;28;20045;-85
2023/09/13 03:26:31;;;;;;;20.20;6.95;;;;;;;17.95;52.45;95531.84;5042956;28;20037;-84
2023/09/13 03:28:57;;;;;;;14.50;5.85;;;;;;;17.89;52.92;95540.34;5037383;28;20032;-86
2023/09/13 03:31:27;;;;;;;16.17;6.65;;;;;;;17.88;53.12;95558.31;5020651;28;20067;-86
2023/09/13 03:33:55;;;;;;;19.20;6.78;;;;;;;17.36;53.11;95474.94;5020110;28;20057;-86
2023/09/13 03:36:21;;;;;;;19.08;6.43;;;;;;;17.59;52.89;95493.66;5037236;28;20048;-86
2023/09/13 03:38:47;;;;;;;21.38;6.65;;;;;;;17.42;53.10;95486.31;5054647;28;20039;-86
2023/09/13 03:41:14;;;;;;;16.08;6.45;;;;;;;17.32;53.54;95505.34;5036352;28;20511;-86
2023/09/13 03:43:40;;;;;;;16.95;6.65;;;;;;;17.69;53.85;95560.47;5036077;28;20070;-86
2023/09/13 03:46:06;;;;;;;26.35;7.30;;;;;;;17.03;54.23;95472.88;5036499;28;20095;-86
2023/09/13 03:48:33;;;;;;;19.10;6.85;;;;;;;16.95;54.42;95469.84;5035569;28;20094;-85
2023/09/13 03:50:59;;;;;;;21.05;7.43;;;;;;;17.58;54.38;95564.47;5054828;28;20040;-86
2023/09/13 03:53:25;;;;;;;18.02;7.20;;;;;;;17.09;53.88;95474.34;5036565;28;20052;-86
2023/09/13 03:55:54;;;;;;;19.05;7.65;;;;;;;17.02;53.97;95465.91;5036797;28;20033;-86
2023/09/13 03:58:20;;;;;;;17.83;7.32;;;;;;;17.50;54.13;95549.91;5036375;28;20071;-86
2023/09/13 04:00:46;;;;;;;22.45;7.47;;;;;;;16.90;54.20;95471.84;5036014;28;20029;-86
2023/09/13 04:03:13;;;;;;;19.98;7.78;;;;;;;17.56;54.18;95564.78;5036341;28;20122;-86
2023/09/13 04:05:38;;;;;;;18.60;7.95;;;;;;;17.22;54.17;95522.50;5035698;28;20037;-87
2023/09/13 04:08:04;;;;;;;12.45;6.57;;;;;;;17.19;54.18;95515.06;5035883;28;20182;-86
2023/09/13 04:10:29;;;;;;;18.48;6.63;;;;;;;16.97;54.59;95505.16;5053733;28;20041;-86
2023/09/13 04:12:55;;;;;;;20.92;7.35;;;;;;;17.14;54.42;95531.28;5053445;28;20136;-86
2023/09/13 04:15:20;;;;;;;19.95;7.55;;;;;;;17.11;54.42;95526.50;5019906;28;20032;-86
2023/09/13 04:17:46;;;;;;;19.23;6.63;;;;;;;17.29;54.64;95564.94;5035840;28;20043;-86
2023/09/13 04:20:12;;;;;;;24.90;6.82;;;;;;;16.06;54.91;95384.13;5053986;28;20044;-86
2023/09/13 04:22:38;;;;;;;21.30;7.68;;;;;;;16.37;54.94;95432.41;5037878;28;20040;-83
2023/09/13 04:25:05;;;;;;;27.83;8.15;;;;;;;17.36;54.69;95565.31;5038788;28;20040;-83
2023/09/13 04:27:30;;;;;;;20.13;7.47;;;;;;;16.78;54.57;95480.44;5039016;28;20066;-84
2023/09/13 04:29:56;;;;;;;16.90;6.97;;;;;;;16.71;53.83;95450.59;5039205;28;20480;-84
2023/09/13 04:32:23;;;;;;;17.95;6.90;;;;;;;17.32;53.93;95530.25;5039303;28;20084;-83
2023/09/13 04:34:52;;;;;;;18.67;7.78;;;;;;;17.28;53.48;95515.13;5057171;28;20039;-84
2023/09/13 04:37:18;;;;;;;24.60;8.52;;;;;;;17.29;53.14;95501.41;5037452;28;20152;-84
2023/09/13 04:39:43;;;;;;;20.10;7.60;;;;;;;17.07;53.10;95455.88;5035046;28;20056;-84
2023/09/13 04:42:09;;;;;;;18.15;8.07;;;;;;;16.34;52.94;95359.94;5053235;28;20070;-84
2023/09/13 04:44:34;;;;;;;20.17;7.25;;;;;;;15.65;52.03;95255.91;5053546;28;20029;-84
2023/09/13 04:47:00;;;;;;;11.60;6.70;;;;;;;17.45;52.07;95535.88;5035590;28;20029;-84
2023/09/13 04:49:25;;;;;;;14.77;6.28;;;;;;;17.65;52.11;95572.91;5047887;28;20515;-84
2023/09/13 04:51:52;;;;;;;22.58;7.45;;;;;;;17.57;51.94;95536.06;5018363;28;20042;-84
2023/09/13 04:54:17;;;;;;;19.45;7.07;;;;;;;17.71;51.70;95545.63;5044408;28;20086;-84
2023/09/13 04:56:43;;;;;;;21.52;7.18;;;;;;;17.53;52.23;95519.03;5052567;28;20040;-84
2023/09/13 04:59:08;;;;;;;17.88;7.50;;;;;;;17.80;51.51;95545.66;5033464;28;20040;-84
2023/09/13 05:01:34;;;;;;;23.85;7.05;;;;;;;17.08;51.19;95428.00;5022470;28;20055;-84
2023/09/13 05:03:59;;;;;;;20.65;8.02;;;;;;;17.95;51.31;95553.31;5021830;28;20021;-84
2023/09/13 05:06:25;;;;;;;16.77;6.45;;;;;;;17.76;51.32;95509.06;5037370;28;20037;-84
2023/09/13 05:08:52;;;;;;;23.85;8.20;;;;;;;18.23;50.91;95564.63;5033752;28;20069;-84
2023/09/13 05:11:19;;;;;;;25.35;8.02;;;;;;;18.23;50.88;95577.25;5035489;28;20041;-82
2023/09/13 05:13:47;;;;;;;16.77;7.25;;;;;;;17.57;50.88;95448.38;5029322;28;20032;-85
2023/09/13 05:16:20;;;;;;;25.33;9.15;;;;;;;17.95;51.06;95513.06;5044605;28;20029;-84
2023/09/13 05:18:46;;;;;;;27.55;8.60;;;;;;;18.05;51.13;95530.75;5023223;28;20038;-83
2023/09/13 05:21:11;;;;;;;33.92;8.45;;;;;;;18.26;51.11;95566.66;5034327;28;20021;-85
2023/09/13 05:23:37;;;;;;;30.30;8.75;;;;;;;18.48;50.73;95574.59;5027272;28;20330;-84
2023/09/13 05:26:03;;;;;;;85.05;10.63;;;;;;;18.24;50.94;95514.38;5031071;28;20029;-84
2023/09/13 05:28:33;;;;;;;189.15;18.95;;;;;;;18.06;50.38;95498.25;5049907;28;20027;-85
2023/09/13 05:30:59;;;;;;;22.13;6.78;;;;;;;18.25;50.75;95515.94;5030011;28;20091;-84
2023/09/13 05:33:25;;;;;;;15.32;6.20;;;;;;;17.92;50.69;95459.22;5019822;28;20681;-86
2023/09/13 05:35:51;;;;;;;15.07;5.85;;;;;;;17.87;50.48;95454.00;5020476;28;20090;-84
2023/09/13 05:38:17;;;;;;;18.15;5.10;;;;;;;18.60;50.80;95575.91;5024027;28;20044;-86
2023/09/13 05:40:42;;;;;;;17.05;5.30;;;;;;;16.85;51.15;95298.69;5048975;28;20032;-85
2023/09/13 05:43:08;;;;;;;17.02;5.20;;;;;;;18.62;51.20;95569.13;5040556;28;20869;-85
2023/09/13 05:45:33;;;;;;;12.10;4.60;;;;;;;17.87;50.74;95432.53;5019631;28;20056;-85
2023/09/13 05:47:59;;;;;;;8.48;4.57;;;;;;;16.97;50.67;95285.47;5027250;28;20025;-88
2023/09/13 05:50:25;;;;;;;11.98;5.45;;;;;;;17.33;50.73;95343.41;5029831;28;20109;-84
2023/09/13 05:52:51;;;;;;;17.58;5.65;;;;;;;18.08;50.93;95479.91;5018241;28;20039;-84
2023/09/13 05:55:22;;;;;;;11.05;4.60;;;;;;;17.12;51.00;95294.97;5041351;28;20075;-87
2023/09/13 05:57:50;;;;;;;10.75;5.05;;;;;;;18.86;51.10;95574.81;5022669;28;20145;-86
2023/09/13 06:00:16;;;;;;;11.10;4.72;;;;;;;18.35;50.55;95476.19;5035211;28;20044;-88
2023/09/13 06:02:41;;;;;;;16.60;5.68;;;;;;;18.98;50.46;95578.78;5018261;28;20565;-86
2023/09/13 06:05:09;;;;;;;12.77;6.38;;;;;;;18.50;50.35;95485.66;5017636;28;20037;-85
2023/09/13 06:07:36;;;;;;;12.88;6.07;;;;;;;19.07;50.35;95574.22;5019418;28;20050;-85
2023/09/13 06:10:02;;;;;;;17.25;6.88;;;;;;;19.01;50.43;95559.31;5025279;28;20036;-84
2023/09/13 06:12:28;;;;;;;20.23;6.93;;;;;;;18.64;49.97;95490.91;5022905;28;20052;-84
2023/09/13 06:14:55;;;;;;;20.10;7.22;;;;;;;19.21;49.85;95570.25;5018397;28;20032;-85
2023/09/13 06:17:22;;;;;;;16.05;6.38;;;;;;;19.25;49.94;95568.47;5050865;28;20033;-86
2023/09/13 06:19:49;;;;;;;19.80;6.53;;;;;;;18.56;49.81;95462.13;5022380;28;20384;-85
2023/09/13 06:22:17;;;;;;;18.83;6.50;;;;;;;18.60;50.07;95471.97;5029593;28;20546;-85
2023/09/13 06:24:42;;;;;;;13.23;6.25;;;;;;;18.65;49.89;95466.41;5029081;28;20037;-85
2023/09/13 06:27:08;;;;;;;16.40;6.00;;;;;;;19.23;50.01;95548.38;5027993;28;20376;-85
2023/09/13 06:29:33;;;;;;;16.70;6.18;;;;;;;18.36;49.87;95407.16;5043235;28;20051;-85
2023/09/13 06:31:59;;;;;;;19.98;6.78;;;;;;;18.89;50.17;95511.59;5026853;28;20691;-85
2023/09/13 06:34:24;;;;;;;15.30;6.28;;;;;;;19.16;49.96;95543.50;5044017;28;20127;-84
2023/09/13 06:36:50;;;;;;;14.10;6.95;;;;;;;18.85;49.92;95481.88;5019386;28;20511;-86
2023/09/13 06:39:17;;;;;;;20.42;6.50;;;;;;;19.15;49.79;95515.03;5037345;28;20740;-85
2023/09/13 06:41:43;;;;;;;12.13;6.70;;;;;;;19.33;49.27;95544.59;5021428;28;20033;-85
2023/09/13 06:44:09;;;;;;;11.27;5.55;;;;;;;19.39;48.95;95545.97;5031682;28;20236;-86
2023/09/13 06:46:38;;;;;;;15.32;6.55;;;;;;;18.74;48.66;95443.03;5027927;28;20036;-85
2023/09/13 06:49:04;;;;;;;21.67;6.22;;;;;;;18.93;49.23;95466.06;5017637;28;20610;-85
2023/09/13 06:51:30;;;;;;;24.30;6.85;;;;;;;19.68;49.28;95572.22;5026001;28;20208;-86
2023/09/13 06:53:55;;;;;;;20.10;7.15;;;;;;;19.06;48.99;95459.72;5023357;28;21182;-85
2023/09/13 06:56:21;;;;;;;16.70;6.03;;;;;;;19.85;48.85;95581.03;5026711;28;20040;-86
2023/09/13 06:58:47;;;;;;;12.85;5.55;;;;;;;19.95;48.76;95569.91;5040843;28;20048;-86
2023/09/13 07:01:13;;;;;;;13.43;5.57;;;;;;;19.69;48.80;95526.16;5041317;28;20025;-85
2023/09/13 07:03:38;;;;;;;14.43;5.00;;;;;;;19.02;48.61;95421.94;5025905;28;20535;-86
2023/09/13 07:06:04;;;;;;;15.30;5.93;;;;;;;19.63;48.41;95539.00;5018574;28;20047;-86
2023/09/13 07:08:29;;;;;;;16.92;6.40;;;;;;;19.39;48.24;95474.16;5028890;28;20033;-87
2023/09/13 07:10:55;;;;;;;11.23;5.75;;;;;;;20.08;48.23;95570.00;5023091;28;20040;-87
2023/09/13 07:13:21;;;;;;;12.02;5.43;;;;;;;18.92;47.68;95383.88;5026062;28;20718;-87
2023/09/13 07:15:47;;;;;;;20.30;7.75;;;;;;;19.18;47.60;95409.56;5021850;28;20142;-86
2023/09/13 07:18:12;;;;;;;16.50;6.90;;;;;;;20.27;47.64;95575.78;5019020;28;20042;-86
2023/09/13 07:20:38;;;;;;;16.65;7.00;;;;;;;19.97;48.06;95542.66;5040905;28;20502;-86
2023/09/13 07:23:03;;;;;;;13.27;5.30;;;;;;;19.73;47.61;95502.88;5041032;28;20021;-86
2023/09/13 07:25:29;;;;;;;15.30;5.32;;;;;;;19.14;47.52;95405.16;5050034;28;20029;-88
2023/09/13 07:27:54;;;;;;;10.68;5.57;;;;;;;19.58;47.80;95473.81;5024331;28;20215;-86
2023/09/13 07:30:20;;;;;;;11.32;5.05;;;;;;;17.70;47.65;95186.53;5036393;28;20040;-87
2023/09/13 07:32:48;;;;;;;13.57;5.55;;;;;;;20.13;47.23;95541.00;5027987;28;20119;-87
2023/09/13 07:35:14;;;;;;;16.35;6.15;;;;;;;20.07;47.28;95528.03;5025450;28;20045;-87
2023/09/13 07:37:39;;;;;;;16.08;5.78;;;;;;;20.05;47.08;95523.00;5040763;28;20076;-87
2023/09/13 07:40:05;;;;;;;16.83;6.25;;;;;;;19.14;47.43;95389.81;5041129;28;20442;-87
2023/09/13 07:42:31;;;;;;;13.57;5.30;;;;;;;19.18;47.16;95388.03;5027613;28;20060;-87
2023/09/13 07:44:56;;;;;;;15.15;5.50;;;;;;;19.46;47.45;95420.66;5029435;28;20048;-86
2023/09/13 07:47:22;;;;;;;16.38;5.97;;;;;;;20.52;46.72;95572.16;5031812;28;20124;-86
2023/09/13 07:49:49;;;;;;;10.60;5.15;;;;;;;19.97;46.61;95470.00;5046487;28;20056;-87
2023/09/13 07:52:14;;;;;;;9.60;5.25;;;;;;;20.65;46.61;95567.66;5050101;28;20059;-87
2023/09/13 07:54:41;;;;;;;15.15;5.32;;;;;;;20.00;46.34;95456.66;5048381;28;20029;-89
2023/09/13 07:57:07;;;;;;;17.25;5.40;;;;;;;20.12;46.18;95472.13;5063775;28;20051;-86
2023/09/13 07:59:32;;;;;;;23.73;6.13;;;;;;;20.76;46.45;95556.16;5040871;28;20059;-87
2023/09/13 08:01:58;;;;;;;15.82;6.00;;;;;;;20.84;46.46;95564.50;5060028;28;20040;-88
2023/09/13 08:04:23;;;;;;;24.08;6.32;;;;;;;20.86;45.67;95557.66;5034632;28;20037;-85
2023/09/13 08:06:48;;;;;;;12.75;4.80;;;;;;;20.83;45.28;95544.84;5034640;28;21340;-86
2023/09/13 08:09:15;;;;;;;12.38;5.25;;;;;;;19.85;45.43;95376.47;5036983;28;20062;-88
2023/09/13 08:11:43;;;;;;;15.52;5.30;;;;;;;18.70;45.62;95186.06;5035491;28;20036;-88
2023/09/13 08:14:08;;;;;;;20.90;6.32;;;;;;;19.67;45.35;95312.34;5057322;28;20029;-93
2023/09/13 08:16:35;;;;;;;13.30;5.65;;;;;;;21.15;45.29;95540.59;5059779;22;20041;-82
2023/09/13 08:19:00;;;;;;;18.15;7.03;;;;;;;20.71;45.60;95475.50;5019165;28;20034;-82
2023/09/13 08:21:26;;;;;;;13.93;5.35;;;;;;;21.31;45.79;95563.19;5007719;28;20040;-82
2023/09/13 08:23:51;;;;;;;17.90;5.63;;;;;;;21.44;45.06;95556.69;5022790;28;20070;-82
2023/09/13 08:26:16;;;;;;;15.02;5.90;;;;;;;21.47;45.26;95556.03;5023670;28;20038;-82
2023/09/13 08:28:42;;;;;;;22.88;5.75;;;;;;;21.61;44.21;95561.13;5010934;28;20037;-82
2023/09/13 08:31:07;;;;;;;15.23;5.88;;;;;;;21.71;44.30;95546.41;5019867;28;20037;-82
2023/09/13 08:33:33;;;;;;;20.92;6.55;;;;;;;21.51;44.15;95523.78;5017012;28;20041;-80
2023/09/13 08:35:58;;;;;;;22.50;8.57;;;;;;;21.53;44.26;95511.53;5020545;28;20021;-82
2023/09/13 08:38:24;;;;;;;27.85;7.68;;;;;;;21.81;43.96;95554.88;5019736;28;20044;-82
2023/09/13 08:40:51;;;;;;;16.95;7.72;;;;;;;21.76;44.30;95538.09;5007690;28;20033;-82
2023/09/13 08:43:18;;;;;;;26.48;8.85;;;;;;;21.65;43.57;95521.56;4981720;28;20464;-81
2023/09/13 08:45:46;;;;;;;22.52;7.82;;;;;;;21.77;43.32;95526.97;4997105;28;20048;-81
2023/09/13 08:48:12;;;;;;;19.10;6.85;;;;;;;21.79;43.66;95538.22;4995930;28;20096;-81
2023/09/13 08:50:39;;;;;;;19.60;6.57;;;;;;;21.86;43.23;95537.66;4981263;28;20037;-82
2023/09/13 08:53:06;;;;;;;24.65;5.75;;;;;;;21.78;42.82;95508.88;4987554;28;20364;-81
2023/09/13 08:55:33;;;;;;;15.68;5.63;;;;;;;21.97;42.52;95521.84;5002993;28;20045;-82
2023/09/13 08:57:59;;;;;;;17.92;6.20;;;;;;;22.01;42.54;95507.31;5002883;28;20555;-82
2023/09/13 09:00:28;;;;;;;18.45;6.00;;;;;;;22.07;42.68;95507.88;5008435;28;20064;-82
2023/09/13 09:02:59;;;;;;;29.70;8.13;;;;;;;22.21;42.90;95502.91;5011444;28;20143;-81
2023/09/13 09:05:26;;;;;;;15.05;6.80;;;;;;;22.30;42.76;95506.28;4993592;28;20045;-81
2023/09/13 09:07:53;;;;;;;14.25;5.95;;;;;;;22.30;42.63;95504.38;4992168;28;20623;-81
2023/09/13 09:10:19;;;;;;;10.73;5.72;;;;;;;22.54;42.41;95525.19;5005555;28;20036;-81
2023/09/13 09:12:48;;;;;;;21.15;6.35;;;;;;;22.60;42.50;95515.69;4990967;28;20289;-81
2023/09/13 09:15:16;;;;;;;15.98;6.03;;;;;;;22.70;41.71;95526.03;4987260;28;20143;-81
2023/09/13 09:17:44;;;;;;;13.75;5.13;;;;;;;22.74;41.17;95512.66;4969166;28;20075;-82
2023/09/13 09:20:10;;;;;;;15.85;5.43;;;;;;;22.77;40.63;95495.75;4983663;28;20037;-82
2023/09/13 09:22:37;;;;;;;20.65;6.00;;;;;;;22.65;40.71;95472.22;4971585;28;20472;-80
2023/09/13 09:25:09;;;;;;;21.63;5.40;;;;;;;22.77;39.78;95492.25;4980710;28;20563;-82
2023/09/13 09:27:36;;;;;;;8.77;5.35;;;;;;;22.87;40.25;95486.38;4986519;28;20263;-82
2023/09/13 09:30:03;;;;;;;11.10;5.18;;;;;;;22.90;40.00;95501.88;4979181;28;20084;-81
2023/09/13 09:32:29;;;;;;;13.75;5.32;;;;;;;22.95;40.23;95488.94;4980333;28;20152;-79
2023/09/13 09:34:57;;;;;;;15.85;4.25;;;;;;;23.14;40.33;95512.63;4995591;28;20175;-78
2023/09/13 09:37:31;;;;;;;15.07;4.57;;;;;;;23.31;39.40;95506.91;4978263;28;20633;-81
2023/09/13 09:39:56;;;;;;;16.35;5.47;;;;;;;23.42;39.81;95513.38;5002943;28;20389;-79
2023/09/13 09:42:22;;;;;;;17.88;5.63;;;;;;;23.46;38.90;95500.72;5000650;28;20050;-78
2023/09/13 09:44:48;;;;;;;9.43;3.92;;;;;;;23.44;38.06;95483.25;4996889;28;20030;-80
2023/09/13 09:47:14;;;;;;;12.98;3.78;;;;;;;23.60;37.35;95503.03;4998366;28;20049;-79
2023/09/13 09:49:49;;;;;;;15.95;4.60;;;;;;;23.51;37.31;95450.19;4980557;28;20124;-80
2023/09/13 09:52:15;;;;;;;13.63;3.50;;;;;;;23.82;37.22;95498.94;4979155;28;20132;-79
2023/09/13 09:54:47;;;;;;;8.75;3.78;;;;;;;23.84;37.25;95470.38;4993955;28;20049;-78
2023/09/13 09:57:25;;;;;;;14.02;4.53;;;;;;;24.41;36.16;95468.22;4977893;28;20033;-79
2023/09/13 09:59:52;;;;;;;14.70;4.75;;;;;;;25.12;35.07;95492.19;4997100;28;20052;-80
2023/09/13 10:02:25;;;;;;;10.13;4.32;;;;;;;26.12;34.14;95479.19;4981505;28;20034;-80
2023/09/13 10:04:51;;;;;;;9.10;3.78;;;;;;;27.18;32.42;95479.88;4980463;28;20101;-80
2023/09/13 10:07:16;;;;;;;10.38;4.90;;;;;;;27.73;31.53;95422.06;4995745;28;20129;-81
2023/09/13 10:09:44;;;;;;;8.10;4.20;;;;;;;28.61;29.62;95411.72;4980240;28;20044;-81
2023/09/13 10:12:10;;;;;;;10.70;3.92;;;;;;;29.62;28.48;95460.81;4981004;28;20053;-81
2023/09/13 10:14:37;;;;;;;12.80;4.63;;;;;;;30.48;27.58;95461.59;4984117;28;20038;-79
2023/09/13 10:17:07;;;;;;;24.55;5.25;;;;;;;31.00;26.98;95471.63;4985433;28;20073;-80
2023/09/13 10:19:33;;;;;;;11.05;4.40;;;;;;;31.17;26.62;95433.63;4997502;28;20125;-78
2023/09/13 10:21:59;;;;;;;7.88;3.60;;;;;;;31.79;25.44;95448.13;4986515;28;20104;-78
2023/09/13 10:24:38;;;;;;;11.73;3.55;;;;;;;32.26;25.04;95458.75;4979046;28;20098;-79
2023/09/13 10:27:07;;;;;;;14.25;5.18;;;;;;;32.53;24.79;95415.72;4979824;28;20084;-77
2023/09/13 10:29:35;;;;;;;8.10;5.20;;;;;;;33.12;23.95;95454.66;5000818;28;20030;-78
2023/09/13 10:32:06;;;;;;;18.45;4.53;;;;;;;33.46;23.88;95449.13;4988290;28;20097;-78
2023/09/13 10:34:35;;;;;;;12.63;3.60;;;;;;;33.54;23.56;95423.09;4994172;28;20137;-77
2023/09/13 10:37:17;;;;;;;19.30;4.38;;;;;;;33.82;23.47;95449.41;5010754;28;20046;-78
2023/09/13 10:39:59;;;;;;;14.75;4.40;;;;;;;33.74;23.02;95414.94;4994121;28;20152;-79
2023/09/13 10:42:25;;;;;;;10.82;4.10;;;;;;;33.90;23.00;95401.31;4992871;28;20408;-78
2023/09/13 10:44:53;;;;;;;14.13;4.63;;;;;;;34.36;22.62;95430.03;5009597;28;20104;-77
2023/09/13 10:47:19;;;;;;;13.20;3.63;;;;;;;34.51;21.98;95444.31;4993138;28;20030;-82
2023/09/13 10:49:48;;;;;;;15.50;4.38;;;;;;;34.36;22.23;95411.53;4984860;28;20022;-81
2023/09/13 10:52:14;;;;;;;17.38;4.00;;;;;;;34.45;22.55;95402.72;5007643;28;20038;-82
2023/09/13 10:54:41;;;;;;;16.50;4.18;;;;;;;34.61;22.54;95426.81;5005886;28;20030;-80
2023/09/13 10:57:09;;;;;;;11.13;3.88;;;;;;;34.54;21.97;95374.63;4982697;28;20026;-80
2023/09/13 10:59:36;;;;;;;16.40;4.15;;;;;;;34.94;21.63;95425.03;5008405;28;20389;-81
2023/09/13 11:02:04;;;;;;;13.18;4.28;;;;;;;34.70;21.85;95383.75;5007674;28;20091;-80
2023/09/13 11:04:31;;;;;;;9.98;3.83;;;;;;;34.73;21.46;95404.94;5001320;28;20060;-81
2023/09/13 11:06:58;;;;;;;15.00;3.95;;;;;;;34.79;21.59;95430.03;5011157;28;20029;-81
2023/09/13 11:09:30;;;;;;;13.00;3.75;;;;;;;34.54;21.39;95415.94;4985356;28;20610;-80
2023/09/13 11:11:57;;;;;;;10.05;3.78;;;;;;;34.76;21.88;95409.63;5007285;28;20040;-81
2023/09/13 11:14:24;;;;;;;17.25;4.28;;;;;;;34.96;21.71;95415.13;4988339;28;20034;-81
2023/09/13 11:16:49;;;;;;;16.65;4.70;;;;;;;35.02;21.67;95413.41;4993777;28;20061;-81
2023/09/13 11:19:15;;;;;;;16.35;3.92;;;;;;;35.14;21.05;95398.22;4985243;28;20041;-81
2023/09/13 11:22:00;;;;;;;17.60;4.40;;;;;;;35.24;21.16;95405.50;4991833;28;20044;-82
2023/09/13 11:24:43;;;;;;;17.80;4.68;;;;;;;35.20;21.58;95391.75;5008460;28;20038;-81
2023/09/13 11:27:16;;;;;;;17.55;4.47;;;;;;;35.60;21.14;95402.69;4993870;28;20040;-81